Time;durP1;ratioP1;P1;durP2;ratioP2;P2;SDS_P1;SDS_P2;PMS_P1;PMS_P2;Temp;Humidity;BMP_temperature;BMP_pressure;BME280_temperature;BME280_humidity;BME280_pressure;Samples;Min_cycle;Max_cycle;Signal;HPM_P1;HPM_P2
2022/11/25 00:00:34;;;;;;;56.03;31.85;;;3.60;99.90;;;;;;5080501;28;20248;-86
2022/11/25 00:03:04;;;;;;;66.00;33.47;;;3.60;99.90;;;;;;5081933;28;20202;-86
2022/11/25 00:05:30;;;;;;;64.53;33.55;;;3.60;99.90;;;;;;5080607;28;20206;-85
2022/11/25 00:07:57;;;;;;;60.53;29.40;;;3.30;99.90;;;;;;5081396;28;20219;-85
2022/11/25 00:10:24;;;;;;;54.30;30.85;;;3.40;99.90;;;;;;5080632;28;20230;-84
2022/11/25 00:12:51;;;;;;;65.20;30.95;;;4.00;99.90;;;;;;5081086;28;20278;-85
2022/11/25 00:15:20;;;;;;;66.65;31.80;;;3.60;99.90;;;;;;5081111;28;20225;-86
2022/11/25 00:17:46;;;;;;;59.28;31.25;;;3.40;99.90;;;;;;5080649;28;20199;-85
2022/11/25 00:20:15;;;;;;;66.57;31.65;;;3.60;99.90;;;;;;5080497;28;20224;-85
2022/11/25 00:22:42;;;;;;;51.60;29.60;;;3.60;99.90;;;;;;5081050;28;20203;-86
2022/11/25 00:25:09;;;;;;;53.25;27.67;;;3.60;99.90;;;;;;5080686;28;20213;-86
2022/11/25 00:27:36;;;;;;;53.38;28.02;;;3.70;99.90;;;;;;5088864;28;20246;-85
2022/11/25 00:30:03;;;;;;;66.00;30.20;;;3.70;99.90;;;;;;5090223;28;20275;-86
2022/11/25 00:32:30;;;;;;;61.38;30.85;;;3.90;99.90;;;;;;5089310;28;20285;-85
2022/11/25 00:34:57;;;;;;;52.83;28.80;;;3.70;99.90;;;;;;5081007;28;20207;-85
2022/11/25 00:37:25;;;;;;;47.78;26.50;;;3.40;99.90;;;;;;5080620;28;20293;-85
2022/11/25 00:39:52;;;;;;;53.75;26.70;;;3.60;99.90;;;;;;5080655;28;20368;-85
2022/11/25 00:45:09;;;;;;;58.35;26.92;;;3.70;99.90;;;;;;5082015;28;20616;-85
2022/11/25 00:47:35;;;;;;;52.47;26.48;;;3.70;99.90;;;;;;5082218;28;20289;-86
2022/11/25 00:50:03;;;;;;;53.10;27.92;;;3.80;99.90;;;;;;5082661;28;20233;-86
2022/11/25 00:52:35;;;;;;;52.60;28.25;;;3.70;99.90;;;;;;5082323;28;20227;-86
2022/11/25 00:55:03;;;;;;;55.88;27.55;;;3.50;99.90;;;;;;5081125;28;20222;-86
2022/11/25 00:57:30;;;;;;;49.63;28.10;;;4.10;99.90;;;;;;5081627;28;20249;-86
2022/11/25 00:59:57;;;;;;;56.38;29.08;;;3.90;99.90;;;;;;5081116;28;20250;-86
2022/11/25 01:02:24;;;;;;;53.50;27.13;;;3.50;99.90;;;;;;5081077;28;20313;-86
2022/11/25 01:04:50;;;;;;;51.20;29.30;;;3.90;99.90;;;;;;5080647;28;20293;-86
2022/11/25 01:07:18;;;;;;;51.03;28.60;;;4.00;99.90;;;;;;5080107;28;20229;-86
2022/11/25 01:09:47;;;;;;;70.75;30.38;;;3.90;99.90;;;;;;5079292;28;20202;-86
2022/11/25 01:12:14;;;;;;;62.60;31.55;;;3.90;99.90;;;;;;5079663;28;20230;-86
2022/11/25 01:14:41;;;;;;;59.85;29.40;;;3.60;99.90;;;;;;5079530;28;20203;-85
2022/11/25 01:17:08;;;;;;;48.80;27.70;;;3.90;99.90;;;;;;5079771;28;20199;-86
2022/11/25 01:19:38;;;;;;;52.00;30.10;;;4.20;99.90;;;;;;5079194;28;20199;-85
2022/11/25 01:22:05;;;;;;;54.38;30.05;;;3.80;99.90;;;;;;5080135;28;20252;-85
2022/11/25 01:24:32;;;;;;;67.25;35.45;;;3.90;99.90;;;;;;5079804;28;20729;-87
2022/11/25 01:27:01;;;;;;;78.20;39.60;;;3.90;99.90;;;;;;5093934;28;20218;-84
2022/11/25 01:29:28;;;;;;;69.70;38.90;;;3.90;99.90;;;;;;5084764;28;20233;-86
2022/11/25 01:31:56;;;;;;;62.13;33.17;;;3.90;99.90;;;;;;5078631;28;20614;-87
2022/11/25 01:34:26;;;;;;;76.43;39.85;;;3.60;99.90;;;;;;5078502;28;20214;-86
2022/11/25 01:36:52;;;;;;;52.28;29.85;;;3.90;99.90;;;;;;5080457;28;20265;-85
2022/11/25 01:39:21;;;;;;;55.35;29.52;;;4.00;99.90;;;;;;5080455;28;20289;-85
2022/11/25 01:41:49;;;;;;;58.13;28.27;;;3.90;99.90;;;;;;5079055;28;20313;-86
2022/11/25 01:44:20;;;;;;;55.28;27.35;;;4.10;99.90;;;;;;5078704;28;20578;-87
2022/11/25 01:46:58;;;;;;;59.80;29.05;;;3.70;99.90;;;;;;5080033;28;20190;-86
2022/11/25 01:49:30;;;;;;;47.97;27.23;;;3.60;99.90;;;;;;5078733;28;20186;-86
2022/11/25 01:52:02;;;;;;;58.72;28.73;;;3.60;99.90;;;;;;5081337;28;20325;-85
2022/11/25 01:54:33;;;;;;;57.97;29.77;;;3.90;99.90;;;;;;5080442;28;20187;-86
2022/11/25 01:57:04;;;;;;;68.38;31.67;;;4.30;99.90;;;;;;5080690;28;20641;-85
2022/11/25 01:59:38;;;;;;;56.95;27.60;;;4.10;99.90;;;;;;5079882;28;20193;-85
2022/11/25 02:02:05;;;;;;;55.00;28.83;;;3.90;99.90;;;;;;5079849;28;20233;-85
2022/11/25 02:04:37;;;;;;;52.33;28.13;;;3.70;99.90;;;;;;5084489;28;20202;-84
2022/11/25 02:07:08;;;;;;;67.32;31.08;;;3.90;99.90;;;;;;5093271;28;20195;-85
2022/11/25 02:09:37;;;;;;;51.55;27.90;;;4.00;99.90;;;;;;5081152;28;20249;-83
2022/11/25 02:12:05;;;;;;;66.05;32.17;;;3.90;99.90;;;;;;5078750;28;20249;-84
2022/11/25 02:14:34;;;;;;;73.00;31.33;;;3.50;99.90;;;;;;5078474;28;20598;-84
2022/11/25 02:17:01;;;;;;;66.63;31.00;;;3.70;99.90;;;;;;5081347;28;20685;-85
2022/11/25 02:19:37;;;;;;;56.78;26.95;;;3.90;99.90;;;;;;5084297;28;20219;-86
2022/11/25 02:22:11;;;;;;;66.53;29.73;;;3.90;99.90;;;;;;5085020;28;20321;-86
2022/11/25 02:24:43;;;;;;;66.80;31.55;;;3.60;99.90;;;;;;5083847;28;20210;-85
2022/11/25 02:27:11;;;;;;;66.35;29.23;;;3.90;99.90;;;;;;5080117;28;20660;-86
2022/11/25 02:29:39;;;;;;;67.28;30.45;;;3.90;99.90;;;;;;5079598;28;20645;-85
2022/11/25 02:32:06;;;;;;;55.85;31.08;;;3.90;99.90;;;;;;5079704;28;20654;-86
2022/11/25 02:34:32;;;;;;;55.47;28.02;;;3.70;99.90;;;;;;5078937;28;20202;-86
2022/11/25 02:37:00;;;;;;;58.75;28.80;;;3.80;99.90;;;;;;5079588;28;20245;-86
2022/11/25 02:39:28;;;;;;;55.55;27.60;;;3.80;99.90;;;;;;5079631;28;20695;-86
2022/11/25 02:41:58;;;;;;;59.17;28.88;;;4.00;99.90;;;;;;5079764;28;20265;-86
2022/11/25 02:44:27;;;;;;;57.97;28.33;;;3.70;99.90;;;;;;5079912;28;20222;-86
2022/11/25 02:46:54;;;;;;;58.22;31.40;;;3.90;99.90;;;;;;5079350;28;20677;-85
2022/11/25 02:49:21;;;;;;;55.22;30.88;;;3.80;99.90;;;;;;5080529;28;20218;-85
2022/11/25 02:51:48;;;;;;;56.33;29.88;;;4.10;99.90;;;;;;5080050;28;20660;-85
2022/11/25 02:54:16;;;;;;;66.63;28.33;;;3.60;99.90;;;;;;5079735;28;20265;-85
2022/11/25 02:56:43;;;;;;;67.90;31.45;;;3.90;99.90;;;;;;5079233;28;20297;-86
2022/11/25 02:59:10;;;;;;;73.75;30.42;;;4.00;99.90;;;;;;5082986;28;20688;-86
2022/11/25 03:01:38;;;;;;;62.90;28.55;;;4.00;99.90;;;;;;5079238;28;20226;-86
2022/11/25 03:04:05;;;;;;;63.38;28.15;;;4.50;99.90;;;;;;5079122;28;20230;-87
2022/11/25 03:06:33;;;;;;;70.28;30.30;;;4.20;99.90;;;;;;5086804;28;20249;-85
2022/11/25 03:09:00;;;;;;;58.80;27.83;;;4.00;99.90;;;;;;5098552;28;20217;-84
2022/11/25 03:14:08;;;;;;;71.72;31.20;;;3.90;99.90;;;;;;4940722;29;20208;-85
2022/11/25 03:16:34;;;;;;;63.55;29.60;;;3.80;99.90;;;;;;4941404;29;20271;-85
2022/11/25 03:19:03;;;;;;;59.97;27.75;;;4.00;99.90;;;;;;4942248;28;20246;-84
2022/11/25 03:21:30;;;;;;;57.88;27.40;;;;;;;;;;4942644;29;20231;-83
2022/11/25 03:23:57;;;;;;;60.65;29.33;;;4.40;99.90;;;;;;4942831;29;20585;-84
2022/11/25 03:26:24;;;;;;;61.13;29.63;;;4.10;99.90;;;;;;4942570;28;20235;-84
2022/11/25 03:28:51;;;;;;;57.22;28.50;;;4.10;99.90;;;;;;4942348;28;20231;-84
2022/11/25 03:31:18;;;;;;;58.10;27.50;;;4.20;99.90;;;;;;4945548;29;20243;-84
2022/11/25 03:33:45;;;;;;;60.58;28.75;;;4.10;99.90;;;;;;4942439;29;20242;-84
2022/11/25 03:36:13;;;;;;;58.03;29.50;;;4.20;99.90;;;;;;4942477;28;20291;-84
2022/11/25 03:38:40;;;;;;;53.63;26.00;;;4.20;99.90;;;;;;4942149;28;20648;-84
2022/11/25 03:41:18;;;;;;;55.20;28.02;;;;;;;;;;4942485;29;20216;-84
2022/11/25 03:43:46;;;;;;;51.78;25.60;;;;;;;;;;4941873;29;20290;-84
2022/11/25 03:46:43;;;;;;;45.80;26.13;;;4.20;99.90;;;;;;4946551;29;20214;-84
2022/11/25 03:49:12;;;;;;;53.63;26.10;;;;;;;;;;4997114;28;20226;-84
2022/11/25 03:51:49;;;;;;;45.15;23.95;;;;;;;;;;4955873;28;20710;-83
2022/11/25 03:54:25;;;;;;;45.10;24.77;;;;;;;;;;4948324;29;20245;-83
2022/11/25 03:56:57;;;;;;;47.90;26.45;;;;;;;;;;4956503;29;20188;-85
2022/11/25 03:59:26;;;;;;;57.38;25.25;;;;;;;;;;4955763;29;20192;-85
2022/11/25 04:02:01;;;;;;;45.38;24.05;;;;;;;;;;4955271;29;20232;-84
2022/11/25 04:04:35;;;;;;;42.67;25.30;;;;;;;;;;4953307;29;20222;-85
2022/11/25 04:07:14;;;;;;;42.38;24.00;;;4.30;99.90;;;;;;4952011;29;20270;-84
2022/11/25 04:09:57;;;;;;;;;;;;;;;;;;;;;
2022/11/25 04:15:16;;;;;;;45.22;23.17;;;;;;;;;;4949232;29;20221;-86
2022/11/25 04:17:44;;;;;;;52.97;26.60;;;;;;;;;;4943942;29;20616;-86
2022/11/25 04:20:16;;;;;;;40.05;23.30;;;4.20;99.90;;;;;;4944604;29;20203;-85
2022/11/25 04:22:46;;;;;;;40.95;23.35;;;;;;;;;;4945133;29;20231;-84
2022/11/25 04:25:15;;;;;;;40.55;22.83;;;;;;;;;;4945537;29;20210;-85
2022/11/25 04:27:50;;;;;;;41.78;23.77;;;;;;;;;;4944817;29;20237;-84
2022/11/25 04:30:18;;;;;;;46.30;24.15;;;;;;;;;;4945907;29;20188;-85
2022/11/25 04:32:56;;;;;;;42.85;25.38;;;;;;;;;;4944596;29;20227;-85
2022/11/25 04:35:23;;;;;;;43.90;24.17;;;;;;;;;;4944602;29;20210;-84
2022/11/25 04:37:51;;;;;;;37.50;22.35;;;;;;;;;;4941603;29;20231;-85
2022/11/25 04:40:19;;;;;;;47.35;25.13;;;4.20;99.90;;;;;;4945503;29;20239;-84
2022/11/25 04:42:46;;;;;;;40.58;23.25;;;;;;;;;;4943504;29;20263;-84
2022/11/25 04:45:15;;;;;;;37.33;23.77;;;4.40;99.90;;;;;;4942604;29;20253;-84
2022/11/25 04:47:42;;;;;;;36.70;21.88;;;4.60;99.90;;;;;;4942914;29;20207;-85
2022/11/25 04:50:13;;;;;;;38.67;22.67;;;4.40;99.90;;;;;;4943147;28;20218;-85
2022/11/25 04:52:40;;;;;;;42.45;21.80;;;4.40;99.90;;;;;;4943450;28;20327;-85
2022/11/25 04:55:09;;;;;;;38.75;20.70;;;4.40;99.90;;;;;;4943556;29;20239;-86
2022/11/25 04:57:36;;;;;;;40.40;24.42;;;4.50;99.90;;;;;;4942632;29;20809;-85
2022/11/25 05:00:04;;;;;;;40.40;22.95;;;4.30;99.90;;;;;;4942810;29;20243;-85
2022/11/25 05:02:31;;;;;;;44.00;22.45;;;4.50;99.90;;;;;;4942321;29;20314;-85
2022/11/25 05:04:58;;;;;;;39.85;23.05;;;4.40;99.90;;;;;;4943039;29;20211;-84
2022/11/25 05:07:27;;;;;;;45.63;22.83;;;4.30;99.90;;;;;;4944230;29;20294;-85
2022/11/25 05:10:02;;;;;;;41.13;23.75;;;4.40;99.90;;;;;;4942827;29;20237;-85
2022/11/25 05:12:30;;;;;;;37.67;23.00;;;4.50;99.90;;;;;;4941015;29;20231;-85
2022/11/25 05:14:58;;;;;;;48.33;24.88;;;4.40;99.90;;;;;;4942302;29;20211;-85
2022/11/25 05:17:26;;;;;;;47.45;24.27;;;4.40;99.90;;;;;;4944902;29;20213;-85
2022/11/25 05:20:03;;;;;;;63.75;26.65;;;4.50;99.90;;;;;;4941049;28;20289;-86
2022/11/25 05:22:32;;;;;;;44.75;24.75;;;4.30;99.90;;;;;;4940711;29;20231;-85
2022/11/25 05:25:04;;;;;;;48.95;23.77;;;4.30;99.90;;;;;;4940460;29;20219;-85
2022/11/25 05:27:34;;;;;;;45.95;26.80;;;4.40;99.90;;;;;;4944200;29;20202;-85
2022/11/25 05:30:01;;;;;;;46.53;25.25;;;4.50;99.90;;;;;;4944178;29;20306;-85
2022/11/25 05:32:28;;;;;;;58.60;28.15;;;4.50;99.90;;;;;;4942887;29;20309;-85
2022/11/25 05:37:48;;;;;;;51.40;26.25;;;;;;;;;;4940211;29;20227;-85
2022/11/25 05:40:15;;;;;;;45.53;23.98;;;;;;;;;;4941617;29;20241;-85
2022/11/25 05:42:54;;;;;;;43.17;22.05;;;;;;;;;;4940851;29;20294;-85
2022/11/25 05:45:21;;;;;;;39.20;25.70;;;;;;;;;;4954787;29;20195;-84
2022/11/25 05:47:48;;;;;;;39.53;21.98;;;;;;;;;;4946663;29;20207;-85
2022/11/25 05:50:16;;;;;;;37.97;22.35;;;;;;;;;;4949390;29;20226;-85
2022/11/25 05:52:46;;;;;;;39.55;21.67;;;;;;;;;;4944564;29;20265;-85
2022/11/25 05:55:13;;;;;;;38.97;22.85;;;;;;;;;;4942221;29;20696;-85
2022/11/25 05:57:40;;;;;;;38.38;21.63;;;;;;;;;;4944079;29;20211;-85
2022/11/25 06:00:14;;;;;;;36.28;22.35;;;;;;;;;;4942911;29;20184;-85
2022/11/25 06:02:42;;;;;;;37.85;21.10;;;;;;;;;;4942561;29;20231;-84
2022/11/25 06:05:12;;;;;;;37.88;23.08;;;;;;;;;;4945824;29;20230;-85
2022/11/25 06:07:47;;;;;;;39.80;23.08;;;;;;;;;;4946471;29;20207;-85
2022/11/25 06:10:25;;;;;;;39.63;22.20;;;;;;;;;;4945833;29;20215;-85
2022/11/25 06:12:54;;;;;;;42.38;22.90;;;;;;;;;;4945037;29;20231;-85
2022/11/25 06:15:23;;;;;;;40.15;23.33;;;;;;;;;;4944672;29;20266;-85
2022/11/25 06:17:53;;;;;;;38.00;23.25;;;;;;;;;;4944297;29;20207;-84
2022/11/25 06:20:31;;;;;;;38.00;24.65;;;;;;;;;;4944426;29;20231;-85
2022/11/25 06:23:01;;;;;;;32.25;23.23;;;;;;;;;;4943015;29;20338;-85
2022/11/25 06:25:28;;;;;;;38.08;24.00;;;;;;;;;;4943738;29;20241;-85
2022/11/25 06:27:59;;;;;;;40.00;24.23;;;;;;;;;;4941467;29;20207;-86
2022/11/25 06:30:34;;;;;;;39.47;23.05;;;;;;;;;;4940242;29;20231;-85
2022/11/25 06:33:06;;;;;;;38.67;23.90;;;;;;;;;;4939355;29;20230;-85
2022/11/25 06:38:22;;;;;;;38.05;24.13;;;;;;;;;;4939582;29;20210;-86
2022/11/25 06:54:12;;;;;;;47.67;25.95;;;4.20;99.90;;;;;;5085072;22;20235;-85
2022/11/25 07:06:14;;;;;;;42.83;25.02;;;;;;;;;;5122425;22;20261;-85
2022/11/25 07:11:31;;;;;;;40.25;22.80;;;4.00;99.90;;;;;;5070272;28;20213;-84
2022/11/25 07:14:18;;;;;;;43.08;24.02;;;4.10;99.90;;;;;;5098302;28;20171;-85
2022/11/25 07:16:58;;;;;;;41.85;25.10;;;;;;;;;;5073629;28;20336;-85
2022/11/25 07:19:26;;;;;;;41.28;24.02;;;;;;;;;;5064501;28;20226;-85
2022/11/25 07:22:06;;;;;;;42.90;24.75;;;;;;;;;;5060944;28;20231;-87
2022/11/25 07:24:39;;;;;;;53.75;28.20;;;;;;;;;;5067071;22;20229;-85
2022/11/25 07:28:05;;;;;;;51.20;25.10;;;4.20;99.90;;;;;;4946829;29;20199;-85
2022/11/25 07:30:32;;;;;;;40.65;23.48;;;;;;;;;;4945426;29;20236;-85
2022/11/25 07:33:01;;;;;;;53.55;28.15;;;;;;;;;;4947197;29;20216;-85
2022/11/25 07:35:30;;;;;;;56.67;29.95;;;;;;;;;;4943193;29;20231;-85
2022/11/25 07:40:54;;;;;;;48.22;27.17;;;;;;;;;;5067765;28;20686;-84
2022/11/25 07:43:49;;;;;;;;;;;;;;;;;;;;;
2022/11/25 07:46:33;;;;;;;44.97;26.45;;;;;;;;;;5068459;28;20636;-85
2022/11/25 07:49:08;;;;;;;47.60;25.83;;;4.10;99.90;;;;;;5064992;28;20231;-85
2022/11/25 07:55:00;;;;;;;53.13;27.77;;;;;;;;;;5004783;28;20205;-86
2022/11/25 08:00:17;;;;;;;54.47;27.92;;;;;;;;;;5060969;28;20226;-86
2022/11/25 08:02:48;;;;;;;57.10;27.20;;;;;;;;;;5066599;28;20203;-84
2022/11/25 08:05:17;;;;;;;59.10;28.27;;;;;;;;;;5066494;28;20214;-84
2022/11/25 09:02:46;;;;;;;53.33;28.92;;;4.10;99.90;;;;;;4968479;28;20212;-86
2022/11/25 09:15:53;;;;;;;59.75;29.83;;;;;;;;;;5029206;28;20232;-86
2022/11/25 09:25:45;;;;;;;61.47;27.10;;;4.40;99.90;;;;;;5036524;28;20195;-86
2022/11/25 10:45:52;;;;;;;47.35;26.90;;;5.20;99.90;;;;;;4963157;28;20305;-87
2022/11/25 10:51:56;;;;;;;44.75;26.10;;;5.10;99.90;;;;;;5000817;28;20229;-87
2022/11/25 11:00:34;;;;;;;49.50;27.98;;;5.30;99.90;;;;;;4938784;29;20214;-84
2022/11/25 11:03:46;;;;;;;55.17;26.13;;;5.40;99.90;;;;;;4978510;28;20202;-84
2022/11/25 11:06:39;;;;;;;55.70;28.08;;;5.50;99.90;;;;;;4968878;28;20265;-84
2022/11/25 11:09:32;;;;;;;52.53;28.65;;;;;;;;;;4966230;29;20687;-83
2022/11/25 11:12:17;;;;;;;46.40;26.20;;;5.60;99.90;;;;;;4959251;29;20232;-83
2022/11/25 11:14:48;;;;;;;51.80;27.63;;;;;;;;;;4964623;28;20257;-82
2022/11/25 11:17:43;;;;;;;49.67;28.50;;;5.70;99.90;;;;;;4969010;28;20210;-83
2022/11/25 11:20:22;;;;;;;48.58;28.98;;;5.70;99.90;;;;;;4968080;29;20190;-84
2022/11/25 11:23:08;;;;;;;49.35;26.50;;;5.70;99.90;;;;;;4965341;28;20262;-84
2022/11/25 11:26:16;;;;;;;43.33;25.13;;;5.90;99.90;;;;;;4965110;28;20294;-84
2022/11/25 11:28:49;;;;;;;45.25;25.63;;;;;;;;;;4965790;29;20232;-84
2022/11/25 11:31:19;;;;;;;42.60;24.73;;;5.60;99.90;;;;;;4965042;28;20219;-84
2022/11/25 11:33:55;;;;;;;41.95;26.50;;;5.70;99.90;;;;;;4965377;29;20198;-84
2022/11/25 11:36:39;;;;;;;52.13;28.85;;;5.90;99.90;;;;;;4964047;28;20230;-84
2022/11/25 11:39:21;;;;;;;46.35;28.13;;;5.90;99.90;;;;;;4963561;28;20186;-84
2022/11/25 11:41:55;;;;;;;52.55;27.63;;;5.90;99.90;;;;;;4967012;29;20617;-84
2022/11/25 11:44:31;;;;;;;49.95;30.02;;;5.90;99.90;;;;;;4972607;29;20233;-85
2022/11/25 11:47:12;;;;;;;45.28;27.20;;;6.70;99.90;;;;;;4958358;29;20194;-81
2022/11/25 11:49:58;;;;;;;45.25;27.15;;;5.80;99.90;;;;;;4971969;29;20214;-83
2022/11/25 11:52:45;;;;;;;43.58;25.90;;;5.80;99.90;;;;;;4974688;29;20556;-83
2022/11/25 11:55:28;;;;;;;43.13;25.20;;;5.90;99.90;;;;;;4968125;28;20608;-84
2022/11/25 11:58:04;;;;;;;51.03;26.02;;;5.70;99.90;;;;;;4966231;29;20218;-84
2022/11/25 12:00:38;;;;;;;46.55;27.90;;;5.90;99.90;;;;;;4964341;28;20187;-85
2022/11/25 12:03:12;;;;;;;42.95;27.95;;;5.90;99.90;;;;;;4965788;29;20217;-85
2022/11/25 12:05:40;;;;;;;44.60;26.48;;;6.20;99.90;;;;;;4964233;28;20322;-83
2022/11/25 12:08:14;;;;;;;45.00;25.80;;;6.00;99.90;;;;;;4962797;28;20297;-84
2022/11/25 12:10:45;;;;;;;43.50;26.65;;;6.00;99.90;;;;;;4961255;29;20242;-85
2022/11/25 12:13:19;;;;;;;47.45;27.08;;;6.30;99.90;;;;;;4961858;28;20276;-86
2022/11/25 12:15:51;;;;;;;41.00;25.75;;;6.00;99.90;;;;;;4962888;28;20257;-85
2022/11/25 12:18:31;;;;;;;44.25;24.85;;;6.30;99.90;;;;;;4961743;28;20215;-85
2022/11/25 12:21:02;;;;;;;40.17;26.40;;;6.00;99.90;;;;;;4961930;28;20292;-84
2022/11/25 12:23:40;;;;;;;43.78;26.00;;;6.80;99.90;;;;;;4961793;29;20230;-83
2022/11/25 12:26:13;;;;;;;42.80;27.00;;;6.10;99.90;;;;;;4960871;28;20321;-85
2022/11/25 12:28:45;;;;;;;40.70;24.60;;;6.20;99.90;;;;;;4961356;29;20710;-86
2022/11/25 12:31:17;;;;;;;48.40;28.88;;;5.90;99.90;;;;;;4965150;28;20211;-82
2022/11/25 12:33:56;;;;;;;38.95;24.73;;;5.80;99.90;;;;;;4966622;28;20202;-84
2022/11/25 12:36:30;;;;;;;46.22;31.55;;;5.80;99.90;;;;;;4961548;28;20231;-84
2022/11/25 12:39:03;;;;;;;48.00;28.45;;;5.80;99.90;;;;;;4959890;29;20281;-84
2022/11/25 12:41:40;;;;;;;48.60;28.00;;;5.70;99.90;;;;;;4960390;29;20223;-84
2022/11/25 12:44:14;;;;;;;45.95;26.67;;;5.70;99.90;;;;;;4959710;28;20776;-84
2022/11/25 12:46:44;;;;;;;50.55;27.75;;;5.80;99.90;;;;;;4960794;28;20230;-84
2022/11/25 12:49:18;;;;;;;53.45;26.17;;;5.80;99.90;;;;;;4960154;29;20286;-83
2022/11/25 12:52:02;;;;;;;44.30;27.35;;;5.80;99.90;;;;;;4960601;29;20219;-83
2022/11/25 12:54:44;;;;;;;47.13;24.25;;;6.00;99.90;;;;;;4967123;28;20258;-81
2022/11/25 12:57:38;;;;;;;45.10;26.27;;;5.80;99.90;;;;;;4973248;29;20197;-82
2022/11/25 13:00:12;;;;;;;47.25;26.00;;;5.80;99.90;;;;;;4972095;28;20179;-85
2022/11/25 13:03:12;;;;;;;42.25;24.35;;;5.80;99.90;;;;;;4960072;29;20191;-84
2022/11/25 13:06:09;;;;;;;43.70;25.40;;;5.80;99.90;;;;;;4960130;28;20285;-84
2022/11/25 13:08:54;;;;;;;45.22;22.63;;;6.00;99.90;;;;;;4960469;29;20214;-84
2022/11/25 13:11:41;;;;;;;46.35;27.92;;;5.60;99.90;;;;;;4960818;29;20214;-86
2022/11/25 13:14:22;;;;;;;45.10;26.55;;;5.50;99.90;;;;;;4960690;29;20265;-84
2022/11/25 13:16:50;;;;;;;46.05;27.05;;;5.80;99.90;;;;;;4959923;28;20237;-84
2022/11/25 13:19:18;;;;;;;42.25;23.60;;;5.70;99.90;;;;;;4968758;28;20253;-83
2022/11/25 13:21:59;;;;;;;59.22;30.27;;;5.80;99.90;;;;;;4974842;28;20210;-82
2022/11/25 13:24:32;;;;;;;46.95;26.02;;;5.90;99.90;;;;;;4966480;28;20241;-82
2022/11/25 13:27:05;;;;;;;42.95;25.02;;;5.90;99.90;;;;;;4961472;28;20206;-84
2022/11/25 13:30:03;;;;;;;44.33;24.98;;;5.90;99.90;;;;;;4961053;28;20217;-84
2022/11/25 13:32:33;;;;;;;52.33;28.92;;;6.70;99.90;;;;;;4962786;28;20191;-85
2022/11/25 13:35:39;;;;;;;56.13;28.23;;;5.70;99.90;;;;;;4960814;28;20233;-85
2022/11/25 13:38:40;;;;;;;54.67;25.73;;;5.90;99.90;;;;;;4960224;29;20241;-85
2022/11/25 13:41:32;;;;;;;59.63;29.83;;;6.20;99.90;;;;;;4962060;28;20237;-85
2022/11/25 13:44:06;;;;;;;52.22;27.13;;;5.80;99.90;;;;;;4961742;28;20264;-84
2022/11/25 13:46:40;;;;;;;56.58;26.88;;;5.90;99.90;;;;;;4961935;28;20302;-83
2022/11/25 13:49:22;;;;;;;48.03;26.48;;;5.80;99.90;;;;;;4964764;29;20290;-84
2022/11/25 13:51:51;;;;;;;46.05;26.60;;;6.00;99.90;;;;;;4967617;29;20278;-82
2022/11/25 13:54:22;;;;;;;47.38;26.25;;;5.70;99.90;;;;;;4961882;29;20211;-84
2022/11/25 13:57:14;;;;;;;47.30;23.73;;;6.10;99.90;;;;;;4960751;29;20226;-85
2022/11/25 13:59:55;;;;;;;48.53;23.55;;;5.90;99.90;;;;;;4960256;29;20246;-86
2022/11/25 14:02:40;;;;;;;47.83;23.50;;;5.80;99.90;;;;;;4960533;28;20213;-84
2022/11/25 14:05:50;;;;;;;49.17;23.38;;;5.70;99.90;;;;;;4960110;28;20230;-85
2022/11/25 14:08:37;;;;;;;43.90;23.90;;;5.90;99.90;;;;;;4962806;29;20218;-84
2022/11/25 14:11:41;;;;;;;47.53;22.90;;;5.90;99.90;;;;;;4964969;28;20231;-83
2022/11/25 14:14:39;;;;;;;45.53;23.80;;;6.10;99.90;;;;;;4961943;28;20213;-86
2022/11/25 14:17:22;;;;;;;59.92;26.10;;;6.10;99.90;;;;;;4962363;28;20225;-85
2022/11/25 14:20:12;;;;;;;54.80;25.80;;;5.90;99.90;;;;;;4960451;28;20206;-83
2022/11/25 14:23:02;;;;;;;55.72;27.00;;;7.00;99.90;;;;;;4960310;29;20222;-85
2022/11/25 14:25:34;;;;;;;50.20;25.88;;;5.90;99.90;;;;;;4959910;28;20327;-84
2022/11/25 14:28:21;;;;;;;47.72;25.75;;;6.20;99.90;;;;;;4959684;29;20286;-83
2022/11/25 14:30:51;;;;;;;68.38;28.27;;;6.70;99.90;;;;;;4961094;29;20690;-85
2022/11/25 14:33:25;;;;;;;59.78;27.45;;;5.20;99.90;;;;;;4963209;29;20221;-86
2022/11/25 14:35:55;;;;;;;62.40;28.27;;;5.80;99.90;;;;;;4961512;28;20249;-85
2022/11/25 14:38:28;;;;;;;67.75;31.45;;;5.50;99.90;;;;;;4960568;28;20237;-85
2022/11/25 14:41:00;;;;;;;61.47;29.55;;;5.90;99.90;;;;;;4962310;28;20213;-84
2022/11/25 14:43:30;;;;;;;60.30;28.33;;;5.70;99.90;;;;;;4966834;29;20576;-83
2022/11/25 14:46:14;;;;;;;79.57;31.65;;;5.90;99.90;;;;;;4963142;28;20298;-85
2022/11/25 14:48:44;;;;;;;64.88;27.73;;;5.50;99.90;;;;;;4969277;29;20229;-82
2022/11/25 14:51:14;;;;;;;60.38;30.00;;;5.80;99.90;;;;;;4966559;28;20238;-85
2022/11/25 14:53:44;;;;;;;67.55;28.23;;;5.80;99.90;;;;;;4965302;29;20210;-84
2022/11/25 14:56:12;;;;;;;69.43;31.00;;;5.80;99.90;;;;;;4962890;28;20285;-85
2022/11/25 14:58:42;;;;;;;73.40;30.80;;;6.20;99.90;;;;;;4965247;28;20617;-85
2022/11/25 15:01:19;;;;;;;79.00;31.63;;;6.70;99.90;;;;;;4963972;29;20199;-84
2022/11/25 15:03:49;;;;;;;64.78;30.25;;;6.00;99.90;;;;;;4961751;28;20344;-85
2022/11/25 15:06:18;;;;;;;75.65;31.58;;;5.80;99.90;;;;;;4960357;28;20313;-86
2022/11/25 15:08:55;;;;;;;66.05;30.80;;;5.60;99.90;;;;;;4960012;28;20218;-85
2022/11/25 15:11:25;;;;;;;63.03;32.38;;;5.90;99.90;;;;;;4958851;28;20462;-83
2022/11/25 15:13:59;;;;;;;68.55;28.95;;;5.80;99.90;;;;;;4959503;29;20206;-85
2022/11/25 15:16:33;;;;;;;70.40;29.83;;;5.90;99.90;;;;;;4959009;28;20230;-84
2022/11/25 15:19:04;;;;;;;64.95;30.10;;;6.20;99.90;;;;;;4960120;29;20241;-82
2022/11/25 15:21:33;;;;;;;59.67;29.52;;;5.90;99.90;;;;;;4960667;29;20278;-84
2022/11/25 15:24:01;;;;;;;65.93;29.23;;;5.80;99.90;;;;;;4959903;29;20293;-83
2022/11/25 15:26:30;;;;;;;84.53;30.60;;;5.80;99.90;;;;;;4959179;28;20226;-85
2022/11/25 15:28:59;;;;;;;92.50;34.38;;;5.70;99.90;;;;;;4960246;28;20669;-84
2022/11/25 15:31:30;;;;;;;68.28;28.58;;;5.90;99.90;;;;;;4958323;29;20231;-84
2022/11/25 15:34:00;;;;;;;66.78;29.63;;;5.90;99.90;;;;;;4959036;29;20784;-84
2022/11/25 15:36:29;;;;;;;66.47;29.13;;;;;;;;;;4959404;28;20733;-85
2022/11/25 15:39:12;;;;;;;64.75;29.65;;;5.90;99.90;;;;;;4958400;28;20213;-85
2022/11/25 15:41:41;;;;;;;70.57;33.17;;;5.90;99.90;;;;;;4957681;28;20436;-84
2022/11/25 15:44:17;;;;;;;62.35;29.52;;;5.80;99.90;;;;;;4961694;29;20249;-84
2022/11/25 15:46:52;;;;;;;57.08;28.83;;;5.90;99.90;;;;;;4961887;28;20287;-84
2022/11/25 15:49:20;;;;;;;62.38;29.00;;;5.90;99.90;;;;;;4961457;28;20645;-86
2022/11/25 15:51:53;;;;;;;51.60;27.20;;;6.20;99.90;;;;;;4961726;29;20318;-84
2022/11/25 15:54:24;;;;;;;54.63;27.88;;;5.90;99.90;;;;;;4963846;28;20278;-86
2022/11/25 15:56:55;;;;;;;51.50;27.75;;;5.90;99.90;;;;;;4961438;28;20246;-85
2022/11/25 15:59:45;;;;;;;53.92;27.30;;;5.90;99.90;;;;;;4961258;29;20223;-85
2022/11/25 16:02:38;;;;;;;54.20;26.67;;;6.20;99.90;;;;;;4962145;28;20287;-84
2022/11/25 16:05:34;;;;;;;53.65;27.40;;;6.00;99.90;;;;;;4962396;28;20786;-84
2022/11/25 16:08:28;;;;;;;50.70;27.45;;;6.00;99.90;;;;;;4960278;29;20293;-84
2022/11/25 16:10:58;;;;;;;47.00;25.73;;;6.00;99.90;;;;;;4964470;28;20214;-84
2022/11/25 16:13:36;;;;;;;54.25;25.95;;;5.90;99.90;;;;;;4968257;29;20669;-82
2022/11/25 16:16:26;;;;;;;58.85;25.67;;;6.00;99.90;;;;;;4969407;28;20222;-84
2022/11/25 16:19:12;;;;;;;48.35;26.20;;;5.70;99.90;;;;;;4966584;28;20211;-85
2022/11/25 16:21:43;;;;;;;54.28;27.10;;;5.80;99.90;;;;;;4962874;28;20210;-85
2022/11/25 16:24:27;;;;;;;52.50;25.90;;;6.10;99.90;;;;;;4960957;29;20219;-83
2022/11/25 16:27:00;;;;;;;45.70;27.05;;;6.30;99.90;;;;;;4960608;28;20191;-84
2022/11/25 16:29:32;;;;;;;43.75;26.27;;;5.90;99.90;;;;;;4960550;29;20210;-85
2022/11/25 16:32:01;;;;;;;38.83;24.25;;;6.00;99.90;;;;;;4967672;28;20246;-84
2022/11/25 16:34:29;;;;;;;39.33;24.42;;;6.00;99.90;;;;;;4967618;28;20219;-85
2022/11/25 16:36:57;;;;;;;42.05;25.75;;;5.70;99.90;;;;;;4968898;29;20233;-85
2022/11/25 16:39:26;;;;;;;44.45;25.55;;;6.30;99.90;;;;;;4971784;28;20207;-83
2022/11/25 16:42:00;;;;;;;34.83;22.70;;;5.50;99.90;;;;;;4972110;29;20229;-84
2022/11/25 16:44:29;;;;;;;39.88;23.30;;;6.10;99.90;;;;;;4972874;28;20235;-83
2022/11/25 16:46:56;;;;;;;39.20;22.20;;;6.10;99.90;;;;;;4965927;28;20214;-84
2022/11/25 16:49:24;;;;;;;40.70;24.40;;;5.70;99.90;;;;;;4961993;28;20791;-84
2022/11/25 16:51:52;;;;;;;41.95;24.33;;;6.10;99.90;;;;;;4962298;28;20486;-84
2022/11/25 16:54:20;;;;;;;39.83;25.20;;;6.30;99.90;;;;;;4961030;28;20234;-85
2022/11/25 17:28:23;;;;;;;41.40;24.13;;;;;;;;;;4966606;22;20250;-83
2022/11/25 17:31:00;;;;;;;40.30;23.83;;;;;;;;;;4975302;28;20210;-83